Time;durP1;ratioP1;P1;durP2;ratioP2;P2;SDS_P1;SDS_P2;PMS_P1;PMS_P2;Temp;Humidity;BMP_temperature;BMP_pressure;BME280_temperature;BME280_humidity;BME280_pressure;Samples;Min_cycle;Max_cycle;Signal;HPM_P1;HPM_P2
2023/05/29 00:01:08;;;;;;;23.15;11.35;;;;;;;11.81;95.16;102171.59;5072337;28;20440;-50
2023/05/29 00:03:34;;;;;;;22.00;10.20;;;;;;;11.76;95.41;102185.47;5091043;28;20089;-48
2023/05/29 00:06:02;;;;;;;20.88;10.23;;;;;;;11.73;94.66;102169.41;5092341;28;20036;-49
2023/05/29 00:08:27;;;;;;;22.85;10.57;;;;;;;11.60;95.07;102176.38;5086752;28;20097;-49
2023/05/29 00:10:53;;;;;;;27.70;9.98;;;;;;;11.57;94.50;102188.00;5071575;28;20456;-50
2023/05/29 00:13:18;;;;;;;23.10;10.23;;;;;;;11.46;94.66;102189.13;5071930;28;20029;-48
2023/05/29 00:15:43;;;;;;;21.80;9.32;;;;;;;11.50;94.35;102188.28;5070591;28;20039;-51
2023/05/29 00:18:09;;;;;;;21.73;8.98;;;;;;;11.43;94.25;102196.06;5072229;28;20136;-49
2023/05/29 00:20:34;;;;;;;21.40;9.68;;;;;;;11.38;94.45;102194.13;5080801;28;20035;-48
2023/05/29 00:23:01;;;;;;;24.42;9.38;;;;;;;11.30;94.25;102196.63;5092343;28;20137;-48
2023/05/29 00:25:27;;;;;;;24.42;9.40;;;;;;;11.27;94.39;102183.34;5091913;28;20047;-47
2023/05/29 00:27:52;;;;;;;24.67;9.93;;;;;;;11.16;94.20;102193.56;5091559;28;20028;-50
2023/05/29 00:30:17;;;;;;;22.02;9.52;;;;;;;11.06;93.97;102194.41;5092083;28;20475;-47
2023/05/29 00:32:43;;;;;;;23.23;9.43;;;;;;;10.97;93.78;102198.84;5085259;28;20029;-48
2023/05/29 00:35:08;;;;;;;22.63;9.60;;;;;;;10.95;93.62;102195.50;5067048;28;20025;-51
2023/05/29 00:37:34;;;;;;;23.83;9.23;;;;;;;10.95;93.04;102196.38;5071142;28;20056;-52
2023/05/29 00:40:00;;;;;;;23.95;9.73;;;;;;;11.00;91.63;102199.13;5071209;28;20031;-49
2023/05/29 00:42:25;;;;;;;21.00;9.10;;;;;;;10.96;91.03;102203.53;5071524;28;20030;-51
2023/05/29 00:44:51;;;;;;;22.05;9.38;;;;;;;10.90;91.38;102202.72;5071680;28;20147;-49
2023/05/29 00:47:16;;;;;;;22.63;8.73;;;;;;;10.85;90.83;102205.47;5071469;28;20024;-50
2023/05/29 00:49:41;;;;;;;21.98;9.50;;;;;;;10.83;89.97;102207.69;5076460;28;20037;-48
2023/05/29 00:52:09;;;;;;;20.63;8.95;;;;;;;10.78;89.73;102216.00;5084304;28;20407;-47
2023/05/29 00:54:36;;;;;;;22.42;8.02;;;;;;;10.74;89.60;102215.72;5075828;28;20024;-50
2023/05/29 00:57:03;;;;;;;22.38;8.80;;;;;;;10.65;89.74;102217.34;5091502;28;20101;-47
2023/05/29 00:59:33;;;;;;;23.85;9.43;;;;;;;10.55;89.99;102228.38;5083581;28;20044;-50
2023/05/29 01:02:02;;;;;;;22.40;9.27;;;;;;;10.57;90.30;102224.22;5075357;28;20031;-49
2023/05/29 01:04:27;;;;;;;19.77;8.23;;;;;;;10.57;89.97;102234.50;5087339;28;20052;-49
2023/05/29 01:06:53;;;;;;;24.30;9.57;;;;;;;10.53;90.30;102234.16;5095601;28;20790;-51
2023/05/29 01:09:18;;;;;;;24.50;9.13;;;;;;;10.48;90.11;102236.94;5095389;28;20377;-49
2023/05/29 01:12:08;;;;;;;22.80;8.80;;;;;;;10.47;90.56;102234.44;5095719;28;20048;-51
2023/05/29 01:15:28;;;;;;;21.15;8.68;;;;;;;10.45;90.09;102231.94;5080356;28;20031;-50
2023/05/29 01:18:08;;;;;;;22.15;8.90;;;;;;;10.22;91.78;102247.03;5052301;28;20072;-50
2023/05/29 01:20:41;;;;;;;22.13;8.70;;;;;;;10.29;91.48;102231.03;5075007;28;20507;-48
2023/05/29 01:23:22;;;;;;;23.63;8.65;;;;;;;10.32;90.98;102236.00;5081619;28;20033;-48
2023/05/29 01:26:05;;;;;;;23.17;9.30;;;;;;;10.24;91.15;102245.69;5095083;28;20194;-52
2023/05/29 01:28:37;;;;;;;24.10;9.60;;;;;;;10.07;92.16;102237.56;5090128;28;20043;-49
2023/05/29 01:31:04;;;;;;;23.23;9.38;;;;;;;9.97;92.37;102230.03;5074164;28;20056;-50
2023/05/29 01:33:29;;;;;;;24.40;8.60;;;;;;;9.99;92.36;102236.13;5075602;28;20030;-49
2023/05/29 01:35:55;;;;;;;25.67;8.63;;;;;;;9.93;92.65;102239.13;5074942;28;20111;-49
2023/05/29 01:38:20;;;;;;;24.27;9.00;;;;;;;10.00;92.25;102236.97;5082440;28;20028;-50
2023/05/29 01:40:46;;;;;;;24.27;9.23;;;;;;;10.03;91.95;102236.44;5075878;28;20120;-50
2023/05/29 01:43:13;;;;;;;22.00;8.80;;;;;;;10.03;91.99;102244.72;5074951;28;20027;-50
2023/05/29 01:45:39;;;;;;;24.83;9.07;;;;;;;10.02;91.67;102242.22;5074701;28;20067;-49
2023/05/29 01:48:05;;;;;;;23.80;9.45;;;;;;;9.98;92.08;102233.66;5074747;28;20441;-48
2023/05/29 01:50:31;;;;;;;23.67;8.25;;;;;;;9.98;91.13;102230.88;5088598;28;20024;-50
2023/05/29 01:52:56;;;;;;;22.05;9.02;;;;;;;9.97;91.19;102235.56;5094903;28;20043;-51
2023/05/29 01:55:21;;;;;;;24.13;8.68;;;;;;;9.89;92.13;102235.25;5086115;28;20032;-50
2023/05/29 01:57:48;;;;;;;21.02;8.55;;;;;;;9.79;92.40;102239.63;5094534;28;20020;-49
2023/05/29 02:00:16;;;;;;;22.08;8.63;;;;;;;9.76;92.62;102229.09;5084842;28;20031;-49
2023/05/29 02:02:42;;;;;;;23.60;8.60;;;;;;;9.83;91.92;102240.72;5074392;28;20605;-47
2023/05/29 02:05:09;;;;;;;23.95;8.40;;;;;;;9.79;92.05;102230.47;5074426;28;20036;-49
2023/05/29 02:07:36;;;;;;;20.45;8.70;;;;;;;9.75;92.01;102240.41;5076116;28;20123;-49
2023/05/29 02:10:03;;;;;;;26.98;9.10;;;;;;;9.74;92.13;102236.81;5085522;28;20033;-50
2023/05/29 02:12:28;;;;;;;21.85;8.23;;;;;;;9.69;91.84;102231.25;5074403;28;20036;-48
2023/05/29 02:14:53;;;;;;;20.55;7.97;;;;;;;9.68;91.67;102226.81;5074212;28;20472;-48
2023/05/29 02:17:19;;;;;;;23.10;8.27;;;;;;;9.68;92.26;102232.34;5092408;28;20028;-50
2023/05/29 02:19:44;;;;;;;20.98;8.00;;;;;;;9.67;91.90;102234.28;5094441;28;20380;-51
2023/05/29 02:22:10;;;;;;;19.60;8.35;;;;;;;9.60;92.49;102230.91;5094413;28;20052;-51
2023/05/29 02:24:35;;;;;;;22.65;8.50;;;;;;;9.54;92.80;102237.50;5094209;28;20051;-50
2023/05/29 02:27:00;;;;;;;20.83;8.60;;;;;;;9.49;92.64;102230.00;5091489;28;20432;-52
2023/05/29 02:29:26;;;;;;;25.45;9.18;;;;;;;9.41;92.78;102230.50;5093210;28;20028;-50
2023/05/29 02:31:51;;;;;;;22.65;8.52;;;;;;;9.35;93.73;102240.69;5087448;28;20085;-48
2023/05/29 02:34:16;;;;;;;24.05;8.45;;;;;;;9.34;94.13;102244.53;5094076;28;20100;-47
2023/05/29 02:36:41;;;;;;;21.88;8.48;;;;;;;9.33;93.95;102248.38;5082635;28;20476;-48
2023/05/29 02:39:07;;;;;;;21.75;8.90;;;;;;;9.28;94.12;102250.28;5092433;28;20024;-47
2023/05/29 02:41:32;;;;;;;22.98;9.20;;;;;;;9.23;94.35;102253.00;5094082;28;20046;-52
2023/05/29 02:43:58;;;;;;;22.38;8.80;;;;;;;9.17;94.56;102255.69;5093933;28;20486;-48
2023/05/29 02:46:23;;;;;;;23.67;9.30;;;;;;;9.11;95.33;102248.47;5093863;28;20028;-52
2023/05/29 02:48:48;;;;;;;22.52;9.07;;;;;;;9.10;95.22;102257.03;5087887;28;20025;-51
2023/05/29 02:51:14;;;;;;;24.92;8.95;;;;;;;9.05;95.44;102255.06;5073515;28;20805;-52
2023/05/29 02:53:40;;;;;;;22.33;9.23;;;;;;;9.08;95.38;102265.56;5073329;28;20037;-49
2023/05/29 02:56:08;;;;;;;23.67;8.40;;;;;;;9.10;95.21;102265.31;5073311;28;20028;-52
2023/05/29 02:58:35;;;;;;;20.83;8.80;;;;;;;9.02;95.95;102250.88;5089564;28;20395;-52
2023/05/29 03:01:03;;;;;;;25.92;9.13;;;;;;;9.03;96.22;102251.72;5093616;28;20613;-51
2023/05/29 03:03:29;;;;;;;20.90;8.52;;;;;;;8.97;97.06;102252.75;5091415;28;20169;-49
2023/05/29 03:05:54;;;;;;;22.30;8.60;;;;;;;8.96;96.98;102251.09;5073215;28;20423;-50
2023/05/29 03:08:20;;;;;;;23.42;8.40;;;;;;;9.03;96.73;102254.47;5074931;28;20032;-49
2023/05/29 03:10:47;;;;;;;23.42;8.20;;;;;;;9.08;95.75;102256.44;5073166;28;20500;-48
2023/05/29 03:13:12;;;;;;;23.75;8.77;;;;;;;9.02;96.12;102248.09;5081721;28;20107;-48
2023/05/29 03:15:37;;;;;;;24.80;9.25;;;;;;;8.96;97.13;102257.44;5091896;28;20150;-51
2023/05/29 03:18:03;;;;;;;25.65;9.23;;;;;;;8.95;96.80;102257.72;5092583;28;20185;-49
2023/05/29 03:20:28;;;;;;;22.88;9.23;;;;;;;8.94;97.62;102256.84;5071792;28;20035;-51
2023/05/29 03:22:53;;;;;;;20.83;8.63;;;;;;;8.88;98.08;102250.44;5072682;28;20020;-49
2023/05/29 03:25:20;;;;;;;26.10;10.05;;;;;;;8.83;98.84;102255.09;5072695;28;20040;-51
2023/05/29 03:27:45;;;;;;;24.55;9.50;;;;;;;8.79;98.96;102257.53;5072833;28;20373;-52
2023/05/29 03:30:11;;;;;;;23.52;8.68;;;;;;;8.83;98.94;102260.63;5072470;28;20555;-49
2023/05/29 03:32:37;;;;;;;24.92;9.27;;;;;;;8.80;99.14;102263.91;5072487;28;20044;-48
2023/05/29 03:35:03;;;;;;;28.75;10.18;;;;;;;8.79;99.43;102270.50;5072748;28;20085;-50
2023/05/29 03:37:29;;;;;;;22.23;9.38;;;;;;;8.81;99.20;102268.31;5092839;28;20028;-49
2023/05/29 03:39:54;;;;;;;25.02;9.13;;;;;;;8.86;98.97;102268.38;5081599;28;20105;-48
2023/05/29 03:42:20;;;;;;;24.90;8.68;;;;;;;8.85;98.98;102263.94;5080074;28;20107;-51
2023/05/29 03:44:45;;;;;;;25.30;9.32;;;;;;;8.86;99.59;102268.38;5078849;28;20060;-51
2023/05/29 03:47:10;;;;;;;22.40;8.93;;;;;;;8.84;99.44;102265.03;5072438;28;20052;-50
2023/05/29 03:49:36;;;;;;;22.02;9.07;;;;;;;8.81;99.44;102268.31;5085821;28;20028;-51
2023/05/29 03:52:01;;;;;;;24.63;9.27;;;;;;;8.86;99.97;102266.47;5092531;28;20088;-48
2023/05/29 03:54:26;;;;;;;23.83;8.73;;;;;;;8.83;99.69;102272.50;5092407;28;20028;-50
2023/05/29 03:56:51;;;;;;;21.92;8.75;;;;;;;8.88;99.70;102269.78;5092400;28;20116;-51
2023/05/29 03:59:17;;;;;;;23.38;9.43;;;;;;;8.89;99.03;102276.97;5083668;28;20074;-51
2023/05/29 04:01:42;;;;;;;24.60;9.30;;;;;;;8.89;98.99;102282.47;5072149;28;20021;-49
2023/05/29 04:04:08;;;;;;;23.33;9.00;;;;;;;8.96;99.48;102284.22;5073208;28;20159;-49
2023/05/29 04:06:33;;;;;;;22.55;8.32;;;;;;;8.98;98.72;102282.00;5082561;28;20118;-47
2023/05/29 04:08:58;;;;;;;21.23;8.00;;;;;;;8.99;98.69;102286.44;5076544;28;20052;-47
2023/05/29 04:11:24;;;;;;;25.52;8.30;;;;;;;8.98;98.56;102293.06;5085000;28;20472;-53
2023/05/29 04:13:49;;;;;;;27.35;9.20;;;;;;;8.97;98.71;102299.69;5071942;28;20032;-47
2023/05/29 04:16:15;;;;;;;22.75;9.05;;;;;;;8.96;98.96;102290.56;5071869;28;20066;-47
2023/05/29 04:18:41;;;;;;;24.77;8.93;;;;;;;8.95;98.86;102296.34;5071973;28;20151;-49
2023/05/29 04:21:06;;;;;;;25.85;8.75;;;;;;;8.92;98.87;102303.22;5071843;28;20039;-47
2023/05/29 04:23:31;;;;;;;29.05;8.73;;;;;;;8.90;99.05;102302.66;5075447;28;20028;-48
2023/05/29 04:25:57;;;;;;;21.45;9.18;;;;;;;8.95;98.72;102297.16;5092136;28;20035;-50
2023/05/29 04:28:23;;;;;;;21.52;8.80;;;;;;;8.99;98.54;102300.25;5092189;28;20028;-52
2023/05/29 04:30:48;;;;;;;22.92;9.05;;;;;;;9.01;98.48;102296.16;5092123;28;20036;-50
2023/05/29 04:33:15;;;;;;;21.52;8.40;;;;;;;9.07;97.39;102299.78;5091954;28;20073;-48
2023/05/29 04:35:42;;;;;;;25.80;8.38;;;;;;;9.08;97.48;102306.97;5083425;28;20114;-51
2023/05/29 04:38:08;;;;;;;22.90;9.25;;;;;;;9.19;96.79;102303.22;5075369;28;20040;-47
2023/05/29 04:40:36;;;;;;;27.33;10.02;;;;;;;9.16;96.64;102303.72;5074742;28;20035;-52
2023/05/29 04:43:02;;;;;;;25.17;9.32;;;;;;;9.16;96.63;102303.72;5071884;28;20458;-50
2023/05/29 04:45:27;;;;;;;24.08;8.90;;;;;;;9.20;95.78;102310.41;5089370;28;20036;-51
2023/05/29 04:47:54;;;;;;;23.92;8.35;;;;;;;9.21;96.16;102311.22;5091702;28;20048;-47
2023/05/29 04:50:20;;;;;;;26.13;8.43;;;;;;;9.27;95.40;102310.22;5085413;28;20028;-51
2023/05/29 04:52:45;;;;;;;22.55;9.13;;;;;;;9.37;95.06;102309.44;5091846;28;20492;-51
2023/05/29 04:55:11;;;;;;;23.70;9.32;;;;;;;9.37;94.63;102312.22;5091586;28;20032;-49
2023/05/29 04:57:37;;;;;;;22.83;8.55;;;;;;;9.46;93.98;102312.59;5091655;28;20035;-47
2023/05/29 05:00:07;;;;;;;25.08;9.15;;;;;;;9.57;92.96;102313.50;5091625;28;20048;-50
2023/05/29 05:02:32;;;;;;;20.98;9.15;;;;;;;9.61;92.80;102320.19;5091828;28;20020;-52
2023/05/29 05:04:57;;;;;;;26.77;9.50;;;;;;;9.59;92.48;102311.31;5091602;28;20769;-50
2023/05/29 05:07:22;;;;;;;22.17;9.18;;;;;;;9.71;92.18;102314.75;5089395;28;20149;-49
2023/05/29 05:09:48;;;;;;;23.15;9.00;;;;;;;9.75;91.12;102312.28;5071474;28;20032;-49
2023/05/29 05:12:13;;;;;;;23.83;8.65;;;;;;;9.79;91.48;102316.16;5075565;28;20055;-50
2023/05/29 05:14:38;;;;;;;25.58;9.15;;;;;;;9.79;91.39;102318.91;5080496;28;20391;-47
2023/05/29 05:17:04;;;;;;;27.08;9.15;;;;;;;9.76;90.96;102320.28;5074723;28;20029;-51
2023/05/29 05:19:29;;;;;;;24.83;8.90;;;;;;;9.78;90.67;102323.63;5083058;28;20609;-48
2023/05/29 05:21:54;;;;;;;24.52;9.25;;;;;;;9.86;90.98;102332.53;5091500;28;20024;-50
2023/05/29 05:24:20;;;;;;;25.63;8.75;;;;;;;9.92;90.86;102337.00;5091428;28;20036;-49
2023/05/29 05:26:45;;;;;;;24.02;8.50;;;;;;;9.94;90.04;102334.78;5091650;28;20425;-50
2023/05/29 05:29:10;;;;;;;25.33;8.55;;;;;;;10.05;89.38;102344.00;5091351;28;20380;-49
2023/05/29 05:31:35;;;;;;;24.15;8.75;;;;;;;10.06;89.59;102348.44;5091465;28;20028;-51
2023/05/29 05:34:01;;;;;;;24.13;8.55;;;;;;;9.98;89.08;102338.69;5091147;28;20081;-50
2023/05/29 05:36:26;;;;;;;24.58;8.98;;;;;;;9.98;89.35;102338.69;5076945;28;20032;-51
2023/05/29 05:38:51;;;;;;;26.80;8.27;;;;;;;10.01;89.17;102340.94;5074950;28;20028;-50
2023/05/29 05:41:17;;;;;;;25.20;9.45;;;;;;;10.03;89.35;102341.50;5075811;28;20025;-51
2023/05/29 05:43:42;;;;;;;24.73;8.48;;;;;;;10.06;88.58;102343.72;5077711;28;20484;-51
2023/05/29 05:46:07;;;;;;;24.50;8.90;;;;;;;10.03;87.99;102332.38;5094693;28;20028;-49
2023/05/29 05:48:33;;;;;;;21.77;7.97;;;;;;;10.07;87.93;102341.78;5076809;28;20062;-51
2023/05/29 05:50:58;;;;;;;24.45;8.00;;;;;;;10.15;88.70;102342.13;5074642;28;20512;-51
2023/05/29 05:53:24;;;;;;;20.92;8.25;;;;;;;10.23;87.47;102349.09;5076795;28;20024;-51
2023/05/29 05:55:49;;;;;;;22.63;8.60;;;;;;;10.27;86.69;102333.63;5094680;28;20036;-52
2023/05/29 05:58:14;;;;;;;27.00;9.52;;;;;;;10.33;86.09;102328.97;5094597;28;20408;-48
2023/05/29 06:00:40;;;;;;;26.35;8.85;;;;;;;10.40;86.03;102326.81;5094692;28;20020;-49
2023/05/29 06:03:05;;;;;;;21.98;8.88;;;;;;;10.46;85.15;102330.44;5094442;28;20028;-51
2023/05/29 06:05:30;;;;;;;22.85;9.02;;;;;;;10.55;84.79;102328.81;5089096;28;20116;-48
2023/05/29 06:07:56;;;;;;;22.83;8.43;;;;;;;10.59;84.16;102342.94;5085025;28;20361;-55
2023/05/29 06:10:21;;;;;;;22.73;8.48;;;;;;;10.62;83.22;102336.88;5085027;28;20028;-52
2023/05/29 06:12:46;;;;;;;24.90;9.35;;;;;;;10.53;82.92;102344.84;5082381;28;20539;-50
2023/05/29 06:15:12;;;;;;;23.98;8.95;;;;;;;10.63;83.57;102338.56;5083175;28;20024;-48
2023/05/29 06:17:37;;;;;;;20.55;7.88;;;;;;;10.79;82.49;102346.91;5085053;28;20036;-49
2023/05/29 06:20:08;;;;;;;25.15;8.05;;;;;;;10.87;81.00;102354.69;5083512;28;20030;-49
2023/05/29 06:22:34;;;;;;;22.98;8.35;;;;;;;10.89;80.35;102350.56;5084591;28;20043;-52
2023/05/29 06:24:59;;;;;;;20.75;8.23;;;;;;;10.99;80.02;102358.06;5083896;28;20025;-49
2023/05/29 06:27:25;;;;;;;26.13;8.50;;;;;;;11.05;78.95;102359.72;5075976;28;20020;-51
2023/05/29 06:29:51;;;;;;;26.63;9.00;;;;;;;11.04;79.16;102355.31;5073892;28;20064;-48
2023/05/29 06:32:16;;;;;;;21.27;8.30;;;;;;;11.17;78.72;102358.66;5073797;28;20031;-51
2023/05/29 06:34:41;;;;;;;19.90;8.20;;;;;;;11.27;78.69;102363.41;5086745;28;20408;-48
2023/05/29 06:37:07;;;;;;;22.20;7.78;;;;;;;11.35;78.34;102365.66;5094127;28;20032;-51
2023/05/29 06:39:32;;;;;;;21.13;7.60;;;;;;;11.36;77.87;102353.47;5094145;28;20493;-48
2023/05/29 06:41:57;;;;;;;20.63;8.20;;;;;;;11.48;76.51;102364.28;5084267;28;20031;-48
2023/05/29 06:44:23;;;;;;;25.52;8.57;;;;;;;11.52;76.00;102382.03;5081301;28;20032;-47
2023/05/29 06:46:48;;;;;;;22.50;7.85;;;;;;;11.36;75.59;102370.09;5085458;28;20032;-49
2023/05/29 06:49:13;;;;;;;19.05;7.65;;;;;;;11.37;76.24;102361.47;5083853;28;20021;-48
2023/05/29 06:51:39;;;;;;;21.23;8.05;;;;;;;11.43;75.55;102361.50;5093736;28;20471;-50
2023/05/29 06:54:04;;;;;;;22.00;8.30;;;;;;;11.41;75.03;102372.84;5092934;28;20497;-47
2023/05/29 06:56:30;;;;;;;21.48;7.88;;;;;;;11.56;75.61;102358.19;5093389;28;20535;-52
2023/05/29 06:58:55;;;;;;;22.55;8.50;;;;;;;11.78;75.26;102357.91;5093411;28;20039;-49
2023/05/29 07:01:20;;;;;;;21.63;8.15;;;;;;;11.92;73.29;102351.81;5093359;28;20027;-51
2023/05/29 07:03:46;;;;;;;23.17;7.45;;;;;;;11.91;73.05;102356.50;5093239;28;20078;-48
2023/05/29 07:06:11;;;;;;;21.17;7.32;;;;;;;12.00;73.16;102356.84;5093411;28;20031;-47
2023/05/29 07:08:37;;;;;;;20.95;8.45;;;;;;;11.98;73.86;102353.50;5093296;28;20073;-51
2023/05/29 07:11:02;;;;;;;20.23;7.70;;;;;;;12.00;73.61;102360.41;5093285;28;20031;-50
2023/05/29 07:13:27;;;;;;;21.45;7.90;;;;;;;12.05;74.12;102362.34;5091561;28;20105;-49
2023/05/29 07:15:53;;;;;;;21.48;7.68;;;;;;;12.15;71.61;102359.56;5076715;28;20016;-50
2023/05/29 07:18:18;;;;;;;21.83;7.78;;;;;;;12.22;71.11;102361.25;5078555;28;20432;-49
2023/05/29 07:20:43;;;;;;;23.83;8.15;;;;;;;12.23;69.94;102362.91;5072766;28;20028;-51
2023/05/29 07:23:09;;;;;;;22.35;7.72;;;;;;;12.29;69.98;102364.56;5072683;28;20032;-49
2023/05/29 07:25:34;;;;;;;18.90;7.80;;;;;;;12.32;69.87;102369.56;5072563;28;20097;-52
2023/05/29 07:27:59;;;;;;;21.00;7.97;;;;;;;12.31;70.23;102367.88;5091347;28;20031;-49
2023/05/29 07:30:25;;;;;;;22.85;8.57;;;;;;;12.37;69.64;102372.31;5092583;28;20070;-50
2023/05/29 07:32:50;;;;;;;21.23;8.15;;;;;;;12.58;69.19;102381.41;5092676;28;20034;-52
2023/05/29 07:35:15;;;;;;;22.63;8.40;;;;;;;12.59;68.61;102373.94;5092642;28;20360;-49
2023/05/29 07:37:40;;;;;;;21.85;8.15;;;;;;;12.63;69.30;102372.22;5088275;28;20020;-51
2023/05/29 07:40:07;;;;;;;20.20;8.07;;;;;;;12.71;68.89;102382.75;5072387;28;20380;-46
2023/05/29 07:42:33;;;;;;;21.33;8.02;;;;;;;12.80;69.06;102375.50;5076113;28;20024;-47
2023/05/29 07:44:58;;;;;;;20.63;7.72;;;;;;;12.83;67.35;102379.66;5081218;28;20032;-50
2023/05/29 07:47:23;;;;;;;24.08;7.97;;;;;;;13.06;67.51;102374.53;5087679;28;20043;-49
2023/05/29 07:49:49;;;;;;;20.88;8.20;;;;;;;13.19;66.90;102375.88;5082848;28;20039;-49
2023/05/29 07:52:15;;;;;;;22.20;8.02;;;;;;;13.33;66.32;102376.91;5082281;28;20039;-52
2023/05/29 07:54:40;;;;;;;22.38;8.02;;;;;;;13.35;63.62;102384.94;5079293;28;20025;-50
2023/05/29 07:57:09;;;;;;;20.10;8.30;;;;;;;13.26;64.04;102379.19;5071151;28;20025;-47
2023/05/29 07:59:35;;;;;;;22.13;7.88;;;;;;;13.30;64.61;102388.59;5071094;28;20020;-50
2023/05/29 08:02:02;;;;;;;20.48;7.97;;;;;;;13.40;64.62;102383.00;5076318;28;20019;-47
2023/05/29 08:04:28;;;;;;;22.08;7.70;;;;;;;13.48;63.58;102392.69;5088962;28;20479;-48
2023/05/29 08:06:53;;;;;;;21.65;7.70;;;;;;;13.51;63.24;102394.88;5087424;28;20020;-47
2023/05/29 08:09:18;;;;;;;21.08;7.93;;;;;;;13.46;63.36;102391.31;5078262;28;20483;-46
2023/05/29 08:11:46;;;;;;;21.10;7.45;;;;;;;13.55;64.02;102387.63;5081550;28;20032;-46
2023/05/29 08:14:15;;;;;;;20.27;8.15;;;;;;;13.57;62.63;102385.41;5080833;28;20029;-46
2023/05/29 08:16:40;;;;;;;19.80;8.00;;;;;;;13.57;62.53;102379.00;5081995;28;20066;-50
2023/05/29 08:19:06;;;;;;;23.45;7.57;;;;;;;13.67;62.41;102390.03;5079236;28;20537;-54
2023/05/29 08:21:31;;;;;;;21.25;8.15;;;;;;;13.83;61.67;102395.50;5078552;28;20068;-54
2023/05/29 08:23:57;;;;;;;18.40;7.38;;;;;;;13.89;60.38;102400.72;5082936;28;20419;-54
2023/05/29 08:26:22;;;;;;;16.92;7.47;;;;;;;13.93;60.84;102394.56;5081429;28;20100;-52
2023/05/29 08:28:48;;;;;;;18.05;6.93;;;;;;;14.11;61.28;102393.03;5083234;28;20032;-49
2023/05/29 08:31:13;;;;;;;19.55;7.78;;;;;;;14.24;60.38;102395.13;5081405;28;20501;-52
2023/05/29 08:33:39;;;;;;;21.77;7.43;;;;;;;14.26;60.85;102397.63;5083510;28;20036;-51
2023/05/29 08:36:05;;;;;;;18.65;7.18;;;;;;;14.24;60.04;102400.69;5083066;28;20193;-50
2023/05/29 08:38:30;;;;;;;18.52;7.60;;;;;;;14.27;59.88;102416.81;5083122;28;20524;-49
2023/05/29 08:40:58;;;;;;;18.73;7.30;;;;;;;14.25;59.82;102394.00;5082566;28;20024;-49
2023/05/29 08:43:25;;;;;;;18.63;7.57;;;;;;;14.25;60.26;102401.53;5083808;28;20020;-47
2023/05/29 08:45:54;;;;;;;22.50;7.13;;;;;;;14.36;59.94;102405.84;5085558;28;20045;-48
2023/05/29 08:48:24;;;;;;;19.90;7.25;;;;;;;14.26;60.25;102404.00;5083534;28;20609;-49
2023/05/29 08:50:52;;;;;;;17.90;6.90;;;;;;;14.40;59.76;102406.94;5083170;28;20390;-49
2023/05/29 08:53:19;;;;;;;20.45;7.18;;;;;;;14.47;58.43;102403.81;5083428;28;20034;-47
2023/05/29 08:55:46;;;;;;;19.17;7.13;;;;;;;14.50;58.92;102408.78;5083111;28;20058;-49
2023/05/29 08:58:13;;;;;;;20.40;7.25;;;;;;;14.60;59.10;102416.19;5082688;28;20024;-49
2023/05/29 09:00:40;;;;;;;18.65;7.32;;;;;;;14.63;57.96;102416.44;5078906;28;20111;-53
2023/05/29 09:03:06;;;;;;;18.60;7.13;;;;;;;14.66;59.10;102418.69;5078541;28;20028;-49
2023/05/29 09:05:32;;;;;;;21.13;7.88;;;;;;;14.86;58.21;102416.78;5079780;28;20043;-48
2023/05/29 09:07:58;;;;;;;22.05;7.55;;;;;;;15.00;57.18;102416.03;5077134;28;20024;-46
2023/05/29 09:10:25;;;;;;;20.52;7.60;;;;;;;15.22;57.04;102407.94;5075502;28;20030;-50
2023/05/29 09:12:51;;;;;;;20.30;7.25;;;;;;;15.43;56.39;102422.44;5078053;28;20024;-49
2023/05/29 09:15:18;;;;;;;19.02;7.15;;;;;;;15.46;54.96;102409.84;5078670;28;20089;-50
2023/05/29 09:17:44;;;;;;;19.85;7.40;;;;;;;15.44;56.28;102401.78;5078703;28;20337;-51
2023/05/29 09:20:17;;;;;;;19.70;6.90;;;;;;;15.49;56.02;102411.22;5082880;28;20447;-51
2023/05/29 09:22:52;;;;;;;21.38;7.15;;;;;;;15.60;55.37;102415.47;5083300;28;20024;-48
2023/05/29 09:25:21;;;;;;;18.83;6.82;;;;;;;15.51;54.99;102409.78;5082621;28;20051;-49
2023/05/29 09:27:46;;;;;;;19.08;7.30;;;;;;;15.51;55.51;102403.34;5080947;28;20038;-53
2023/05/29 09:30:31;;;;;;;18.10;6.88;;;;;;;15.79;55.63;102403.47;5084734;28;20016;-48
2023/05/29 09:32:56;;;;;;;17.58;6.88;;;;;;;15.83;54.82;102407.31;5084337;28;20036;-50
2023/05/29 09:35:21;;;;;;;19.92;7.20;;;;;;;15.83;53.90;102410.94;5093919;28;20024;-47
2023/05/29 09:37:47;;;;;;;17.98;6.88;;;;;;;15.94;54.34;102399.63;5093804;28;20024;-50
2023/05/29 09:40:12;;;;;;;19.20;7.30;;;;;;;15.92;54.13;102419.50;5093861;28;20064;-49
2023/05/29 09:42:37;;;;;;;17.92;7.10;;;;;;;15.79;53.49;102412.69;5093773;28;20024;-50
2023/05/29 09:45:04;;;;;;;18.77;7.28;;;;;;;15.90;54.16;102400.25;5093841;28;20106;-48
2023/05/29 09:47:33;;;;;;;20.90;7.10;;;;;;;16.02;54.33;102405.38;5093830;28;20024;-49
2023/05/29 09:50:00;;;;;;;18.17;7.50;;;;;;;16.22;54.03;102400.56;5092178;28;20484;-48
2023/05/29 09:52:30;;;;;;;19.70;7.22;;;;;;;16.47;53.87;102402.06;5093851;28;20032;-48
2023/05/29 09:54:56;;;;;;;22.13;7.80;;;;;;;16.75;53.75;102409.59;5093892;28;20079;-48
2023/05/29 09:57:23;;;;;;;19.13;7.22;;;;;;;16.52;52.94;102399.16;5073629;28;20040;-48
2023/05/29 09:59:51;;;;;;;19.52;7.70;;;;;;;16.51;52.84;102403.06;5082414;28;20042;-50
2023/05/29 10:02:17;;;;;;;21.20;7.57;;;;;;;16.48;53.14;102400.06;5092829;28;20034;-47
2023/05/29 10:04:44;;;;;;;20.75;7.30;;;;;;;16.55;52.35;102396.88;5092853;28;20097;-48
2023/05/29 10:07:47;;;;;;;18.50;7.65;;;;;;;16.72;52.17;102399.88;5093020;28;20055;-51
2023/05/29 10:10:14;;;;;;;20.00;7.60;;;;;;;16.61;53.11;102396.47;5080609;28;20059;-48
2023/05/29 10:12:44;;;;;;;19.88;7.60;;;;;;;16.64;53.13;102407.00;5078721;28;20037;-49
2023/05/29 10:15:14;;;;;;;21.13;7.53;;;;;;;16.89;53.02;102388.09;5073583;28;20103;-47
2023/05/29 10:17:56;;;;;;;17.67;7.30;;;;;;;17.16;52.65;102392.00;5071795;28;20396;-49
2023/05/29 10:20:22;;;;;;;19.70;7.50;;;;;;;17.39;51.41;102387.28;5073341;28;20392;-50
2023/05/29 10:22:51;;;;;;;21.73;7.93;;;;;;;17.30;50.15;102384.41;5073214;28;20043;-50
2023/05/29 10:25:21;;;;;;;18.85;7.40;;;;;;;17.40;50.21;102385.31;5074141;28;20033;-48
2023/05/29 10:27:48;;;;;;;17.42;7.28;;;;;;;17.67;50.37;102389.97;5072924;28;20567;-50
2023/05/29 10:30:29;;;;;;;19.73;7.20;;;;;;;17.65;49.51;102399.84;5085971;28;20044;-49
2023/05/29 10:33:32;;;;;;;18.88;7.55;;;;;;;17.51;48.76;102383.94;5093260;28;20024;-49
2023/05/29 10:36:09;;;;;;;22.77;7.53;;;;;;;17.44;49.08;102389.13;5088827;28;20444;-47
2023/05/29 10:38:35;;;;;;;20.65;7.15;;;;;;;17.66;48.87;102384.72;5072989;28;20028;-49
2023/05/29 10:41:28;;;;;;;21.80;7.22;;;;;;;17.61;47.72;102380.06;5072930;28;20090;-51
2023/05/29 10:43:56;;;;;;;17.42;7.10;;;;;;;17.44;48.02;102386.34;5072760;28;20365;-49
2023/05/29 10:46:42;;;;;;;19.13;7.40;;;;;;;17.53;49.47;102384.44;5072638;28;20031;-52
2023/05/29 10:49:18;;;;;;;17.98;7.30;;;;;;;17.72;48.66;102389.84;5072681;28;20089;-50
2023/05/29 10:51:44;;;;;;;19.77;7.63;;;;;;;17.76;47.35;102367.63;5072922;28;20032;-48
2023/05/29 10:54:09;;;;;;;19.42;7.47;;;;;;;17.65;48.28;102372.69;5072558;28;20046;-50
2023/05/29 10:56:35;;;;;;;15.18;7.40;;;;;;;17.48;48.38;102380.94;5072653;28;20099;-52
2023/05/29 10:59:01;;;;;;;19.00;7.45;;;;;;;17.54;48.66;102376.88;5084097;28;20032;-50
2023/05/29 11:01:29;;;;;;;17.55;7.28;;;;;;;17.95;48.80;102381.44;5093222;28;20080;-51
2023/05/29 11:04:32;;;;;;;20.30;7.72;;;;;;;18.21;48.50;102378.00;5091442;28;20031;-50
2023/05/29 11:06:58;;;;;;;18.27;7.65;;;;;;;18.40;46.87;102369.38;5069868;28;20145;-50
2023/05/29 11:09:29;;;;;;;18.33;7.47;;;;;;;18.44;45.98;102364.75;5086997;28;20368;-50
2023/05/29 11:12:44;;;;;;;20.23;7.65;;;;;;;18.50;47.16;102369.09;5072270;28;20029;-51
2023/05/29 11:15:10;;;;;;;18.60;7.35;;;;;;;18.64;46.25;102368.13;5072697;28;20069;-49
2023/05/29 11:17:39;;;;;;;17.92;6.95;;;;;;;18.65;45.08;102379.03;5073143;28;20041;-51
2023/05/29 11:20:17;;;;;;;19.50;7.38;;;;;;;18.30;45.91;102364.06;5077070;28;20030;-51